Norwell, Massachusetts
Current Conditions -  °F | °C
As of 12:52 AM on Friday 28 Nov 2014 (Local Time) from KPYM Reporting Station
Light Snow Light Snow  
Wind Chill: 23°   Ceiling: 700
Heat Index: 31°   Visibility: 4mi
Dew Point: 29°   Wind: 8mph
Humidity: 92%   Direction: 310°NW
Pressure: 29.96"   Gusts: NA
Location:  42.16°N, 70.79°W
Report Text: KPYM 280552Z AUTO 31007KT 4SM -SN BR BKN007 OVC019 M01/M02 A2996 RMK AO2 UPB05E10SNB10 SLP148 P0000 60001 T10061017 10017 21006 58005
Loading
Personal Weather Stations






























Interactive Weather Map New forecast layout! Learn more

10-Day Weather Forecast

Advertisements
Track Severe Weather on mobile